createdAt,value
2022-11-02T00:01:57.497Z,11.07
2022-11-02T00:04:59.135Z,11.06
2022-11-02T00:08:00.690Z,11.06
2022-11-02T00:11:02.238Z,11.03
2022-11-02T00:14:03.995Z,11.01
2022-11-02T00:17:05.785Z,11.00
2022-11-02T00:20:08.296Z,10.98
2022-11-02T00:23:12.326Z,10.96
2022-11-02T00:26:14.338Z,10.95
2022-11-02T00:29:15.916Z,10.95
2022-11-02T00:32:17.538Z,10.94
2022-11-02T00:35:19.118Z,10.96
2022-11-02T00:38:20.623Z,10.97
2022-11-02T00:41:22.396Z,10.96
2022-11-02T00:44:23.915Z,10.97
2022-11-02T00:47:25.493Z,10.96
2022-11-02T00:50:27.065Z,10.96
2022-11-02T00:53:28.570Z,10.97
2022-11-02T00:56:30.103Z,10.97
2022-11-02T00:59:31.673Z,10.99
2022-11-02T01:02:34.508Z,11.01
2022-11-02T01:05:37.798Z,11.01
2022-11-02T01:08:39.475Z,11.02
2022-11-02T01:11:41.521Z,11.02
2022-11-02T01:14:43.077Z,11.01
2022-11-02T01:17:44.606Z,11.01
2022-11-02T01:20:46.125Z,11.00
2022-11-02T01:23:48.244Z,10.99
2022-11-02T01:26:53.505Z,10.94
2022-11-02T01:29:55.117Z,10.90
2022-11-02T01:32:56.646Z,10.85
2022-11-02T01:35:58.407Z,10.81
2022-11-02T01:38:59.920Z,10.79
2022-11-02T01:42:01.738Z,10.78
2022-11-02T01:45:03.585Z,10.76
2022-11-02T01:48:05.528Z,10.72
2022-11-02T01:51:11.533Z,10.69
2022-11-02T01:54:17.622Z,10.65
2022-11-02T01:57:22.096Z,10.65
2022-11-02T02:00:23.813Z,10.61
2022-11-02T02:03:25.730Z,10.59
2022-11-02T02:06:27.346Z,10.58
2022-11-02T02:09:30.087Z,10.54
2022-11-02T02:12:33.147Z,10.55
2022-11-02T02:15:56.876Z,10.54
2022-11-02T02:19:02.571Z,10.50
2022-11-02T02:22:07.147Z,10.49
2022-11-02T02:25:11.523Z,10.47
2022-11-02T02:28:45.139Z,10.44
2022-11-02T02:31:49.428Z,10.40
2022-11-02T02:34:59.082Z,10.37
2022-11-02T02:38:04.758Z,10.36
2022-11-02T02:41:14.183Z,10.36
2022-11-02T02:44:23.057Z,10.33
2022-11-02T02:47:27.864Z,10.30
2022-11-02T02:50:35.724Z,10.27
2022-11-02T02:53:45.090Z,10.27
2022-11-02T02:57:00.980Z,10.26
2022-11-02T03:00:03.451Z,10.24
2022-11-02T03:03:05.700Z,10.24
2022-11-02T03:06:09.979Z,10.25
2022-11-02T03:09:14.326Z,10.24
2022-11-02T03:12:39.347Z,10.23
2022-11-02T03:15:44.784Z,10.21
2022-11-02T03:18:57.847Z,10.20
2022-11-02T03:22:05.405Z,10.21
2022-11-02T03:25:15.588Z,10.21
2022-11-02T03:28:48.760Z,10.23
2022-11-02T03:32:19.768Z,10.24
2022-11-02T03:35:30.994Z,10.26
2022-11-02T03:38:42.425Z,10.28
2022-11-02T03:41:46.211Z,10.28
2022-11-02T03:44:52.370Z,10.29
2022-11-02T03:48:04.361Z,10.32
2022-11-02T03:51:12.403Z,10.33
2022-11-02T03:54:34.142Z,10.36
2022-11-02T03:57:57.608Z,10.37
2022-11-02T04:01:03.897Z,10.38
2022-11-02T04:04:05.727Z,10.40
2022-11-02T04:07:07.379Z,10.41
2022-11-02T04:10:09.191Z,10.42
2022-11-02T04:13:29.355Z,10.45
2022-11-02T04:16:30.874Z,10.47
2022-11-02T04:19:32.412Z,10.50
2022-11-02T04:22:52.288Z,10.51
2022-11-02T04:25:55.035Z,10.52
2022-11-02T04:28:56.579Z,10.53
2022-11-02T04:31:58.462Z,10.56
2022-11-02T04:34:59.983Z,10.58
2022-11-02T04:38:20.279Z,10.58
2022-11-02T04:41:41.759Z,10.57
2022-11-02T04:44:43.327Z,10.55
2022-11-02T04:47:44.887Z,10.55
2022-11-02T04:50:46.416Z,10.53
2022-11-02T04:53:49.221Z,10.51
2022-11-02T04:56:50.798Z,10.48
2022-11-02T04:59:52.380Z,10.46
2022-11-02T05:02:53.992Z,10.43
2022-11-02T05:05:55.974Z,10.43
2022-11-02T05:08:57.607Z,10.39
2022-11-02T05:11:59.315Z,10.34
2022-11-02T05:15:00.983Z,10.31
2022-11-02T05:18:02.792Z,10.25
2022-11-02T05:21:05.072Z,10.24
2022-11-02T05:24:07.039Z,10.20
2022-11-02T05:27:10.135Z,10.15
2022-11-02T05:30:12.236Z,10.13
2022-11-02T05:33:13.940Z,10.11
2022-11-02T05:36:16.403Z,10.06
2022-11-02T05:39:17.907Z,10.04
2022-11-02T05:42:19.528Z,10.05
2022-11-02T05:45:23.701Z,10.16
2022-11-02T05:48:27.623Z,10.16
2022-11-02T05:51:29.126Z,10.10
2022-11-02T05:54:30.679Z,10.07
2022-11-02T05:57:32.274Z,10.04
2022-11-02T06:00:33.795Z,10.00
2022-11-02T06:03:36.319Z,9.97
2022-11-02T06:06:37.892Z,9.95
2022-11-02T06:09:39.497Z,9.90
2022-11-02T06:12:41.143Z,9.88
2022-11-02T06:15:42.730Z,9.84
2022-11-02T06:18:45.643Z,9.81
2022-11-02T06:21:48.502Z,9.79
2022-11-02T06:24:50.338Z,9.77
2022-11-02T06:27:55.084Z,9.75
2022-11-02T06:30:57.221Z,9.72
2022-11-02T06:33:58.739Z,9.71
2022-11-02T06:37:00.432Z,9.68
2022-11-02T06:40:02.010Z,9.67
2022-11-02T06:43:15.835Z,9.64
2022-11-02T06:46:17.937Z,9.60
2022-11-02T06:49:19.483Z,9.59
2022-11-02T06:52:21.020Z,9.57
2022-11-02T06:55:22.512Z,9.56
2022-11-02T06:58:24.969Z,9.56
2022-11-02T07:01:26.576Z,9.56
2022-11-02T07:04:28.202Z,9.60
2022-11-02T07:07:29.759Z,9.65
2022-11-02T07:10:31.851Z,9.74
2022-11-02T07:13:33.395Z,9.82
2022-11-02T07:16:35.036Z,9.97
2022-11-02T07:19:36.604Z,10.06
2022-11-02T07:22:38.193Z,10.11
2022-11-02T07:25:39.751Z,10.13
2022-11-02T07:28:41.399Z,10.15
2022-11-02T07:31:43.127Z,10.15
2022-11-02T07:34:45.095Z,10.17
2022-11-02T07:37:55.671Z,10.15
2022-11-02T07:40:57.205Z,10.15
2022-11-02T07:43:58.892Z,10.14
2022-11-02T07:47:01.486Z,10.16
2022-11-02T07:50:03.227Z,10.16
2022-11-02T07:53:05.151Z,10.16
2022-11-02T07:56:07.744Z,10.16
2022-11-02T07:59:10.781Z,10.17
2022-11-02T08:02:13.661Z,10.22
2022-11-02T08:05:15.284Z,10.25
2022-11-02T08:08:20.940Z,10.27
2022-11-02T08:11:22.441Z,10.29
2022-11-02T08:14:24.039Z,10.32
2022-11-02T08:17:25.602Z,10.34
2022-11-02T08:20:27.311Z,10.35
2022-11-02T08:23:28.879Z,10.38
2022-11-02T08:26:30.912Z,10.41
2022-11-02T08:29:32.683Z,10.44
2022-11-02T08:32:34.210Z,10.48
2022-11-02T08:35:37.662Z,10.52
2022-11-02T08:38:40.085Z,10.55
2022-11-02T08:41:41.585Z,10.57
2022-11-02T08:44:43.145Z,10.57
2022-11-02T08:47:45.016Z,10.58
2022-11-02T08:50:48.923Z,10.60
2022-11-02T08:53:51.875Z,10.63
2022-11-02T08:56:53.627Z,10.62
2022-11-02T08:59:55.215Z,10.62
2022-11-02T09:03:04.273Z,10.62
2022-11-02T09:06:06.122Z,10.60
2022-11-02T09:09:07.666Z,10.60
2022-11-02T09:12:09.189Z,10.58
2022-11-02T09:15:10.777Z,10.57
2022-11-02T09:18:12.278Z,10.59
2022-11-02T09:21:14.010Z,10.59
2022-11-02T09:24:15.857Z,10.73
2022-11-02T09:27:17.362Z,10.75
2022-11-02T09:30:19.078Z,10.70
2022-11-02T09:33:20.648Z,10.66
2022-11-02T09:36:22.213Z,10.63
2022-11-02T09:39:24.900Z,10.60
2022-11-02T09:42:53.338Z,10.60
2022-11-02T09:46:26.111Z,10.59
2022-11-02T09:49:30.054Z,10.56
2022-11-02T09:52:40.077Z,10.55
2022-11-02T09:55:52.246Z,10.60
2022-11-02T09:58:59.692Z,10.69
2022-11-02T10:02:11.393Z,10.83
2022-11-02T10:05:32.251Z,10.94
2022-11-02T10:08:53.681Z,11.01
2022-11-02T10:12:21.292Z,11.01
2022-11-02T10:15:28.911Z,11.05
2022-11-02T10:18:31.374Z,11.09
2022-11-02T10:21:34.587Z,11.11
2022-11-02T10:24:43.283Z,11.14
2022-11-02T10:27:50.219Z,11.16
2022-11-02T10:30:53.931Z,11.17
2022-11-02T10:33:58.335Z,11.18
2022-11-02T10:37:24.163Z,11.21
2022-11-02T10:40:37.911Z,11.18
2022-11-02T10:44:03.811Z,11.18
2022-11-02T10:47:10.802Z,11.18
2022-11-02T10:50:15.264Z,11.17
2022-11-02T10:56:42.042Z,11.14
2022-11-02T10:59:43.569Z,11.14
2022-11-02T11:02:45.091Z,11.16
2022-11-02T11:05:59.547Z,11.22
2022-11-02T11:09:07.806Z,11.33
2022-11-02T11:12:29.352Z,11.46
2022-11-02T11:15:49.763Z,11.56
2022-11-02T11:22:33.133Z,11.70
2022-11-02T11:25:34.823Z,11.73
2022-11-02T11:28:53.405Z,11.70
2022-11-02T11:31:55.079Z,11.67
2022-11-02T11:35:01.422Z,11.66
2022-11-02T11:38:07.732Z,11.69
2022-11-02T11:41:12.406Z,11.75
2022-11-02T11:44:15.367Z,11.78
2022-11-02T11:47:17.078Z,11.80
2022-11-02T11:50:27.882Z,11.80
2022-11-02T11:53:32.311Z,11.78
2022-11-02T11:56:34.782Z,11.78
2022-11-02T11:59:42.422Z,11.83
2022-11-02T12:02:44.903Z,11.88
2022-11-02T12:06:06.008Z,11.92
2022-11-02T12:09:19.427Z,11.94
2022-11-02T12:12:32.727Z,11.98
2022-11-02T12:16:07.044Z,12.06
2022-11-02T12:19:22.787Z,12.08
2022-11-02T12:22:50.739Z,12.07
2022-11-02T12:26:13.352Z,12.07
2022-11-02T12:29:36.909Z,12.09
2022-11-02T12:33:15.795Z,12.26
2022-11-02T12:36:28.510Z,12.31
2022-11-02T12:40:07.328Z,12.31
2022-11-02T12:43:30.859Z,12.35
2022-11-02T12:46:48.695Z,12.35
2022-11-02T12:50:19.426Z,12.39
2022-11-02T12:53:45.577Z,12.38
2022-11-02T12:56:52.725Z,12.37
2022-11-02T13:00:00.110Z,12.36
2022-11-02T13:03:16.699Z,12.38
2022-11-02T13:06:29.423Z,12.37
2022-11-02T13:09:51.369Z,12.37
2022-11-02T13:12:58.403Z,12.37
2022-11-02T13:16:01.407Z,12.37
2022-11-02T13:19:04.275Z,12.36
2022-11-02T13:22:10.551Z,12.37
2022-11-02T13:25:30.267Z,12.36
2022-11-02T13:28:48.688Z,12.33
2022-11-02T13:32:29.667Z,12.29
2022-11-02T13:35:37.658Z,12.23
2022-11-02T13:38:46.734Z,12.19
2022-11-02T13:42:30.164Z,12.15
2022-11-02T13:45:50.296Z,12.10
2022-11-02T13:49:00.919Z,12.05
2022-11-02T13:52:05.122Z,12.01
2022-11-02T13:55:16.006Z,11.96
2022-11-02T13:58:31.403Z,11.94
2022-11-02T14:01:36.690Z,11.91
2022-11-02T14:04:40.916Z,11.94
2022-11-02T14:07:42.504Z,11.96
2022-11-02T14:10:44.123Z,11.97
2022-11-02T14:13:51.986Z,11.98
2022-11-02T14:16:53.579Z,11.99
2022-11-02T14:19:56.910Z,12.01
2022-11-02T14:23:14.387Z,12.03
2022-11-02T14:26:32.848Z,11.99
2022-11-02T14:29:46.640Z,11.94
2022-11-02T14:33:06.712Z,11.92
2022-11-02T14:36:32.210Z,11.87
2022-11-02T14:39:50.945Z,11.81
2022-11-02T14:43:11.243Z,11.78
2022-11-02T14:46:23.373Z,11.76
2022-11-02T14:49:30.045Z,11.74
2022-11-02T14:52:36.530Z,11.71
2022-11-02T14:55:39.194Z,11.72
2022-11-02T14:58:50.685Z,11.70
2022-11-02T15:01:59.223Z,11.71
2022-11-02T15:05:04.018Z,11.70
2022-11-02T15:08:17.614Z,11.75
2022-11-02T15:11:46.900Z,11.77
2022-11-02T15:14:49.029Z,11.74
2022-11-02T15:17:52.444Z,11.72
2022-11-02T15:21:13.219Z,11.69
2022-11-02T15:24:19.836Z,11.66
2022-11-02T15:27:22.971Z,11.62
2022-11-02T15:30:28.343Z,11.59
2022-11-02T15:33:43.896Z,11.58
2022-11-02T15:36:46.089Z,11.55
2022-11-02T15:39:52.547Z,11.52
2022-11-02T15:43:21.495Z,11.47
2022-11-02T15:46:38.559Z,11.45
2022-11-02T15:50:25.784Z,11.39
2022-11-02T15:53:55.845Z,11.40
2022-11-02T15:57:38.871Z,11.33
2022-11-02T16:00:40.580Z,11.28
2022-11-02T16:03:57.094Z,11.25
2022-11-02T16:07:05.439Z,11.19
2022-11-02T16:10:20.816Z,11.15
2022-11-02T16:13:22.915Z,11.10
2022-11-02T16:16:24.724Z,11.04
2022-11-02T16:19:26.528Z,11.00
2022-11-02T16:22:28.144Z,10.93
2022-11-02T16:25:40.401Z,10.88
2022-11-02T16:28:42.374Z,10.81
2022-11-02T16:31:43.970Z,10.76
2022-11-02T16:34:45.954Z,10.72
2022-11-02T16:37:50.187Z,10.71
2022-11-02T16:40:52.080Z,10.69
2022-11-02T16:43:54.538Z,10.62
2022-11-02T16:47:00.087Z,10.61
2022-11-02T16:50:02.134Z,10.92
2022-11-02T16:53:03.664Z,11.32
2022-11-02T16:56:18.528Z,11.71
2022-11-02T16:59:21.490Z,12.03
2022-11-02T17:02:38.511Z,12.31
2022-11-02T17:05:42.101Z,12.49
2022-11-02T17:08:44.758Z,12.66
2022-11-02T17:11:46.581Z,12.75
2022-11-02T17:14:49.888Z,12.63
2022-11-02T17:18:23.125Z,12.42
2022-11-02T17:21:28.136Z,12.17
2022-11-02T17:24:32.340Z,12.00
2022-11-02T17:27:39.156Z,11.82
2022-11-02T17:30:45.271Z,11.65
2022-11-02T17:33:48.109Z,11.49
2022-11-02T17:36:50.746Z,11.37
2022-11-02T17:39:53.603Z,11.25
2022-11-02T17:42:59.572Z,11.14
2022-11-02T17:46:01.153Z,11.04
2022-11-02T17:49:02.709Z,10.94
2022-11-02T17:52:04.572Z,10.84
2022-11-02T17:55:07.227Z,10.75
2022-11-02T17:58:10.428Z,10.70
2022-11-02T18:01:13.016Z,10.66
2022-11-02T18:04:14.691Z,10.60
2022-11-02T18:07:16.303Z,10.54
2022-11-02T18:10:19.416Z,10.49
2022-11-02T18:13:23.706Z,10.42
2022-11-02T18:16:25.265Z,10.36
2022-11-02T18:19:28.250Z,10.32
2022-11-02T18:22:29.784Z,10.27
2022-11-02T18:25:32.427Z,10.24
2022-11-02T18:28:34.755Z,10.21
2022-11-02T18:31:37.290Z,10.21
2022-11-02T18:34:38.839Z,10.18
2022-11-02T18:37:41.441Z,10.13
2022-11-02T18:40:43.069Z,10.09
2022-11-02T18:43:44.560Z,10.03
2022-11-02T18:46:46.084Z,9.99
2022-11-02T18:49:47.741Z,9.94
2022-11-02T18:52:50.796Z,9.90
2022-11-02T18:55:52.657Z,9.88
2022-11-02T18:58:55.212Z,9.87
2022-11-02T19:01:56.924Z,9.84
2022-11-02T19:04:58.674Z,9.81
2022-11-02T19:08:19.375Z,9.75
2022-11-02T19:11:21.689Z,9.69
2022-11-02T19:14:24.486Z,9.69
2022-11-02T19:17:26.808Z,9.65
2022-11-02T19:20:28.340Z,9.62
2022-11-02T19:23:29.876Z,9.60
2022-11-02T19:26:31.688Z,9.57
2022-11-02T19:29:34.086Z,9.55
2022-11-02T19:32:35.661Z,9.51
2022-11-02T19:35:37.348Z,9.45
2022-11-02T19:38:39.851Z,9.43
2022-11-02T19:41:41.450Z,9.37
2022-11-02T19:44:43.128Z,9.34
2022-11-02T19:47:44.799Z,9.29
2022-11-02T19:50:46.359Z,9.25
2022-11-02T19:53:53.135Z,9.23
2022-11-02T19:56:54.714Z,9.20
2022-11-02T19:59:56.219Z,9.16
2022-11-02T20:02:57.833Z,9.16
2022-11-02T20:06:01.159Z,9.17
2022-11-02T20:09:04.770Z,9.15
2022-11-02T20:12:07.603Z,9.14
2022-11-02T20:15:10.927Z,9.13
2022-11-02T20:18:19.403Z,9.11
2022-11-02T20:21:29.845Z,9.09
2022-11-02T20:24:32.976Z,9.06
2022-11-02T20:27:40.771Z,9.04
2022-11-02T20:30:43.323Z,9.02
2022-11-02T20:33:45.533Z,9.04
2022-11-02T20:36:47.575Z,9.02
2022-11-02T20:39:49.955Z,8.99
2022-11-02T20:42:51.523Z,8.97
2022-11-02T20:46:23.761Z,8.95
2022-11-02T20:49:48.931Z,8.93
2022-11-02T20:52:45.683Z,8.92
2022-11-02T20:55:47.248Z,8.88
2022-11-02T20:58:55.488Z,8.88
2022-11-02T21:01:57.739Z,8.87
2022-11-02T21:04:59.329Z,8.87
2022-11-02T21:08:01.072Z,8.84
2022-11-02T21:11:04.192Z,8.81
2022-11-02T21:14:05.743Z,8.77
2022-11-02T21:17:07.359Z,8.81
2022-11-02T21:23:31.205Z,8.82
2022-11-02T21:26:32.862Z,8.80
2022-11-02T21:29:34.927Z,8.78
2022-11-02T21:32:36.462Z,8.73
2022-11-02T21:35:37.996Z,8.66
2022-11-02T21:38:39.590Z,8.61
2022-11-02T21:41:41.169Z,8.57
2022-11-02T21:44:42.763Z,8.52
2022-11-02T21:47:44.353Z,8.49
2022-11-02T21:50:45.986Z,8.48
2022-11-02T21:53:48.794Z,8.44
2022-11-02T21:56:50.427Z,8.39
2022-11-02T21:59:52.047Z,8.37
2022-11-02T22:02:53.590Z,8.34
2022-11-02T22:05:55.100Z,8.29
2022-11-02T22:08:56.836Z,8.26
2022-11-02T22:12:16.955Z,8.22
2022-11-02T22:15:18.449Z,8.21
2022-11-02T22:18:20.005Z,8.18
2022-11-02T22:21:22.448Z,8.15
2022-11-02T22:24:24.076Z,8.15
2022-11-02T22:27:25.579Z,8.48
2022-11-02T22:30:29.456Z,8.79
2022-11-02T22:33:31.102Z,8.82
2022-11-02T22:36:34.206Z,8.74
2022-11-02T22:39:35.722Z,8.67
2022-11-02T22:42:39.875Z,8.62
2022-11-02T22:45:44.002Z,8.54
2022-11-02T22:48:45.605Z,8.47
2022-11-02T22:51:49.438Z,8.40
2022-11-02T22:54:50.962Z,8.38
2022-11-02T22:57:59.776Z,8.32
2022-11-02T23:01:02.299Z,8.26
2022-11-02T23:04:05.376Z,8.22
2022-11-02T23:07:06.922Z,8.19
2022-11-02T23:10:28.736Z,8.18
2022-11-02T23:13:30.306Z,8.14
2022-11-02T23:16:35.659Z,8.24
2022-11-02T23:19:38.298Z,8.22
2022-11-02T23:22:39.843Z,8.21
2022-11-02T23:25:41.418Z,8.18
2022-11-02T23:29:01.601Z,8.17
2022-11-02T23:32:22.033Z,8.11
2022-11-02T23:35:41.961Z,8.09
2022-11-02T23:39:04.544Z,8.08
2022-11-02T23:42:06.087Z,8.02
2022-11-02T23:45:08.429Z,8.02
2022-11-02T23:48:10.061Z,7.99
2022-11-02T23:51:30.232Z,7.97
2022-11-02T23:54:50.485Z,7.95
2022-11-02T23:57:52.000Z,7.92
